Time;durP1;ratioP1;P1;durP2;ratioP2;P2;SDS_P1;SDS_P2;PMS_P1;PMS_P2;Temp;Humidity;BMP_temperature;BMP_pressure;BME280_temperature;BME280_humidity;BME280_pressure;Samples;Min_cycle;Max_cycle;Signal;HPM_P1;HPM_P2
2023/06/14 00:01:02;;;;;;;17.45;4.72;;;13.00;99.90;;;11.92;98.28;101580.91;4971252;28;20781;-75
2023/06/14 00:03:29;;;;;;;14.07;4.95;;;13.00;99.90;;;11.97;98.94;101586.91;4968279;28;20023;-74
2023/06/14 00:05:57;;;;;;;13.63;4.82;;;13.10;99.90;;;12.08;98.58;101595.25;4968568;28;20038;-74
2023/06/14 00:08:25;;;;;;;19.42;4.72;;;13.10;99.90;;;12.18;98.15;101589.59;4984811;28;20046;-74
2023/06/14 00:10:51;;;;;;;15.30;5.20;;;13.20;99.90;;;12.25;97.69;101586.69;4983682;28;20019;-74
2023/06/14 00:13:17;;;;;;;20.05;5.78;;;13.30;99.90;;;12.33;97.94;101589.00;4968254;28;20034;-75
2023/06/14 00:15:42;;;;;;;20.73;5.28;;;13.30;99.90;;;12.38;97.16;101587.03;4953772;28;20043;-74
2023/06/14 00:18:11;;;;;;;17.13;5.10;;;13.40;99.90;;;12.44;97.63;101594.72;4953876;28;20026;-74
2023/06/14 00:20:37;;;;;;;14.00;4.78;;;13.40;99.90;;;12.41;99.91;101592.19;4949276;28;20046;-74
2023/06/14 00:23:06;;;;;;;14.23;4.57;;;13.50;99.90;;;12.48;99.29;101595.44;4999302;28;20504;-74
2023/06/14 00:25:32;;;;;;;10.30;4.32;;;13.50;99.90;;;12.55;99.45;101594.28;4962983;28;20436;-74
2023/06/14 00:27:58;;;;;;;17.08;4.72;;;13.60;99.90;;;12.63;100.00;101596.59;4984982;28;20031;-74
2023/06/14 00:30:25;;;;;;;13.27;4.90;;;13.70;99.90;;;12.64;100.00;101593.03;4935020;28;20682;-74
2023/06/14 00:32:51;;;;;;;12.07;4.72;;;13.70;99.90;;;12.74;100.00;101597.00;4943171;28;20041;-74
2023/06/14 00:35:17;;;;;;;12.77;4.47;;;13.70;99.90;;;12.80;100.00;101596.75;4990695;28;20035;-73
2023/06/14 00:37:45;;;;;;;12.32;4.28;;;13.80;99.90;;;12.87;100.00;101600.88;4962471;28;20035;-75
2023/06/14 00:40:11;;;;;;;16.55;5.03;;;13.90;99.90;;;12.90;100.00;101597.25;4941083;28;20039;-74
2023/06/14 00:42:37;;;;;;;19.50;5.05;;;13.90;99.90;;;12.97;100.00;101600.47;4969405;28;20029;-74
2023/06/14 00:45:03;;;;;;;16.45;4.95;;;14.00;99.90;;;13.01;99.81;101597.63;4973541;28;20399;-74
2023/06/14 00:47:29;;;;;;;19.17;4.50;;;13.90;99.90;;;13.05;98.57;101604.50;4984872;28;20668;-74
2023/06/14 00:49:56;;;;;;;20.13;4.72;;;14.00;99.90;;;13.00;100.00;101605.63;4984718;28;20093;-75
2023/06/14 00:52:24;;;;;;;11.95;4.57;;;14.10;99.90;;;13.06;99.71;101600.91;4985989;28;20047;-74
2023/06/14 00:54:50;;;;;;;15.52;4.63;;;14.10;99.90;;;13.11;100.00;101603.41;4966155;28;20102;-74
2023/06/14 00:57:16;;;;;;;15.77;4.93;;;14.10;99.90;;;13.13;99.78;101606.81;4975324;28;20043;-74
2023/06/14 00:59:51;;;;;;;18.15;5.20;;;14.10;99.90;;;13.14;99.49;101597.97;4989522;28;20039;-74
2023/06/14 01:02:20;;;;;;;17.38;5.32;;;14.10;99.90;;;13.18;99.01;101604.84;4951401;28;20057;-74
2023/06/14 01:04:49;;;;;;;15.15;5.13;;;14.20;99.90;;;13.19;98.77;101606.53;4983270;28;20060;-75
2023/06/14 01:07:51;;;;;;;15.32;4.93;;;14.20;99.90;;;13.19;99.59;101609.19;4979513;28;20031;-74
2023/06/14 01:10:40;;;;;;;12.15;4.30;;;14.20;99.90;;;13.19;98.81;101610.97;4971742;28;20042;-75
2023/06/14 01:13:47;;;;;;;12.82;4.63;;;14.10;99.90;;;13.17;97.93;101607.53;4949359;28;20119;-75
2023/06/14 01:16:15;;;;;;;12.63;5.03;;;14.10;99.90;;;13.09;97.15;101606.09;4944778;28;20099;-74
2023/06/14 01:18:41;;;;;;;21.83;4.90;;;14.10;99.90;;;12.98;98.21;101599.53;4944635;28;20027;-74
2023/06/14 01:21:21;;;;;;;15.02;4.90;;;14.00;99.90;;;12.91;99.35;101613.03;4986481;28;20107;-74
2023/06/14 01:23:52;;;;;;;14.85;4.95;;;14.00;99.90;;;12.90;100.00;101616.59;4953994;28;20138;-74
2023/06/14 01:26:22;;;;;;;15.55;4.55;;;13.90;99.90;;;12.88;100.00;101612.31;4953126;28;20035;-74
2023/06/14 01:28:52;;;;;;;13.35;4.97;;;13.90;99.90;;;12.79;100.00;101615.34;4952384;28;20039;-74
2023/06/14 01:31:24;;;;;;;18.33;5.25;;;13.90;99.90;;;12.80;100.00;101615.25;4940518;28;20560;-74
2023/06/14 01:33:51;;;;;;;18.85;5.30;;;13.90;99.90;;;12.84;100.00;101610.72;4965151;28;20061;-74
2023/06/14 01:36:19;;;;;;;13.55;4.95;;;13.90;99.90;;;12.89;100.00;101621.94;4959318;28;20691;-74
2023/06/14 01:38:50;;;;;;;10.73;4.65;;;13.90;99.90;;;12.92;100.00;101620.03;4966044;28;20086;-74
2023/06/14 01:41:18;;;;;;;15.10;5.15;;;14.00;99.90;;;12.97;100.00;101617.19;4980426;28;20047;-74
2023/06/14 01:43:45;;;;;;;12.25;4.88;;;14.00;99.90;;;12.97;99.43;101614.53;4972431;28;20053;-74
2023/06/14 01:46:13;;;;;;;16.20;5.28;;;13.90;99.90;;;12.96;99.65;101610.19;4969336;28;20475;-74
2023/06/14 01:48:41;;;;;;;15.98;4.65;;;13.90;99.90;;;12.90;98.93;101608.66;4982849;28;20043;-74
2023/06/14 01:51:06;;;;;;;16.33;4.35;;;13.90;99.90;;;12.84;99.17;101613.34;4976963;28;20046;-74
2023/06/14 01:53:32;;;;;;;15.95;4.97;;;13.80;99.90;;;12.78;98.88;101608.31;4979593;28;20109;-74
2023/06/14 01:55:58;;;;;;;11.18;5.38;;;13.70;99.90;;;12.70;99.34;101608.66;4977725;28;20065;-74
2023/06/14 01:58:24;;;;;;;12.90;5.15;;;13.70;99.90;;;12.61;99.57;101603.72;4984554;28;20035;-75
2023/06/14 02:00:51;;;;;;;15.85;5.15;;;13.60;99.90;;;12.48;100.00;101604.25;4954850;28;20045;-74
2023/06/14 02:03:16;;;;;;;16.23;5.40;;;13.60;99.90;;;12.44;100.00;101607.94;4975274;28;20023;-76
2023/06/14 02:05:43;;;;;;;16.52;5.70;;;13.50;99.90;;;12.33;100.00;101610.13;4948454;28;20380;-74
2023/06/14 02:08:08;;;;;;;11.95;4.85;;;13.40;99.90;;;12.29;100.00;101605.91;4986129;28;20058;-75
2023/06/14 02:10:34;;;;;;;13.23;5.03;;;13.40;99.90;;;12.17;100.00;101601.97;4978620;28;20499;-74
2023/06/14 02:13:00;;;;;;;11.02;5.45;;;13.30;99.90;;;12.07;100.00;101609.38;4977872;28;20038;-74
2023/06/14 02:15:27;;;;;;;;;;;13.30;99.90;;;11.94;100.00;101601.97;4946561;28;20067;-74
2023/06/14 02:17:53;;;;;;;18.58;5.05;;;13.20;99.90;;;11.93;100.00;101601.13;4952537;28;19957;-74
2023/06/14 02:20:20;;;;;;;15.00;5.57;;;13.10;99.90;;;11.98;100.00;101611.50;4930149;28;20035;-74
2023/06/14 02:22:45;;;;;;;14.63;4.90;;;13.10;99.90;;;12.02;100.00;101606.03;4969886;28;20122;-74
2023/06/14 02:25:11;;;;;;;14.20;5.40;;;13.10;99.90;;;12.04;100.00;101609.50;4954439;28;20038;-74
2023/06/14 02:27:37;;;;;;;13.10;5.13;;;13.10;99.90;;;12.05;100.00;101608.59;4985760;28;20031;-74
2023/06/14 02:30:03;;;;;;;;;;;13.10;99.90;;;12.01;100.00;101612.25;4988710;28;20063;-74
2023/06/14 02:32:29;;;;;;;16.40;5.20;;;13.10;99.90;;;11.99;100.00;101615.88;4958625;28;20457;-74
2023/06/14 02:34:55;;;;;;;11.55;4.82;;;13.10;99.90;;;11.95;100.00;101607.22;4947479;28;20114;-75
2023/06/14 02:37:20;;;;;;;;;;;13.00;99.90;;;11.83;100.00;101605.00;4984225;28;20038;-75
2023/06/14 02:39:46;;;;;;;14.88;5.22;;;12.90;99.90;;;11.78;100.00;101614.88;4981495;28;19929;-74
2023/06/14 02:42:12;;;;;;;16.95;5.45;;;13.00;99.90;;;11.83;100.00;101616.41;4943914;28;20042;-74
2023/06/14 02:44:38;;;;;;;11.10;4.60;;;12.90;99.90;;;11.87;100.00;101620.66;4958732;28;20535;-74
2023/06/14 02:47:05;;;;;;;15.65;5.18;;;13.00;99.90;;;11.94;100.00;101623.09;4943752;28;20035;-74
2023/06/14 02:49:30;;;;;;;11.25;4.95;;;13.00;99.90;;;11.94;100.00;101623.94;4951409;28;20040;-74
2023/06/14 02:51:56;;;;;;;13.80;5.10;;;13.00;99.90;;;11.92;100.00;101619.66;4980447;28;20082;-74
2023/06/14 02:54:22;;;;;;;13.68;4.63;;;13.00;99.90;;;11.92;100.00;101619.66;4985818;28;20039;-74
2023/06/14 02:56:48;;;;;;;14.90;5.10;;;13.00;99.90;;;11.91;100.00;101618.81;4950643;28;20504;-74
2023/06/14 02:59:14;;;;;;;9.57;5.07;;;13.00;99.90;;;11.92;100.00;101632.84;4953738;28;20106;-74
2023/06/14 03:01:41;;;;;;;18.02;5.13;;;13.00;99.90;;;11.90;100.00;101627.66;4976958;28;20146;-73
2023/06/14 03:04:10;;;;;;;13.05;4.88;;;12.90;99.90;;;11.89;100.00;101631.19;4961128;28;20085;-74
2023/06/14 03:06:36;;;;;;;19.55;5.60;;;13.00;99.90;;;11.92;100.00;101630.22;4953916;28;20042;-74
2023/06/14 03:09:09;;;;;;;11.05;4.43;;;13.00;99.90;;;12.00;100.00;101631.63;4937619;28;20100;-74
2023/06/14 03:11:35;;;;;;;19.48;4.68;;;13.10;99.90;;;12.07;100.00;101641.06;4973943;28;20053;-74
2023/06/14 03:14:04;;;;;;;11.57;4.72;;;13.10;99.90;;;12.11;100.00;101631.22;4984917;28;20496;-74
2023/06/14 03:16:30;;;;;;;9.30;4.75;;;13.10;99.90;;;12.12;100.00;101638.25;4968683;28;20038;-74
2023/06/14 03:18:56;;;;;;;9.80;5.28;;;13.10;99.90;;;12.18;99.46;101631.84;4963673;28;20030;-74
2023/06/14 03:21:21;;;;;;;15.27;5.25;;;13.10;99.90;;;12.20;99.34;101632.66;4960748;28;20060;-74
2023/06/14 03:23:48;;;;;;;16.98;4.65;;;13.20;99.90;;;12.19;98.70;101636.22;4951884;28;20035;-74
2023/06/14 03:26:17;;;;;;;16.42;5.38;;;13.20;99.90;;;12.20;98.33;101630.00;4942783;28;20134;-74
2023/06/14 03:28:45;;;;;;;15.15;5.05;;;13.20;99.90;;;12.19;97.80;101628.31;4936555;28;20034;-74
2023/06/14 03:31:12;;;;;;;16.30;5.20;;;13.20;99.90;;;12.20;98.27;101633.53;4951278;28;20094;-73
2023/06/14 03:33:39;;;;;;;16.83;5.72;;;13.20;99.90;;;12.22;98.40;101629.03;4966240;28;20035;-74
2023/06/14 03:36:06;;;;;;;17.95;5.55;;;13.20;99.90;;;12.29;98.04;101635.81;4987249;28;20039;-74
2023/06/14 03:38:32;;;;;;;11.88;5.22;;;13.30;99.90;;;12.41;98.86;101645.00;4953052;28;20243;-74
2023/06/14 03:40:58;;;;;;;19.35;5.35;;;13.90;99.90;;;12.99;97.76;101652.34;4958639;28;20541;-74
2023/06/14 03:43:24;;;;;;;11.45;5.30;;;14.90;99.90;;;14.12;94.67;101672.09;4957732;28;20142;-74
2023/06/14 03:45:51;;;;;;;10.38;4.22;;;16.20;99.90;;;15.44;88.58;101675.41;4960519;28;20546;-75
2023/06/14 03:48:17;;;;;;;10.82;4.55;;;17.30;99.90;;;16.66;79.92;101681.19;4974630;28;20086;-74
2023/06/14 03:50:44;;;;;;;19.63;8.27;;;18.30;99.90;;;17.76;74.50;101687.13;4968375;28;20495;-74
2023/06/14 03:53:10;;;;;;;18.05;5.78;;;19.30;99.90;;;18.76;69.59;101682.59;4942206;28;20085;-74
2023/06/14 03:55:37;;;;;;;18.67;11.20;;;20.20;99.90;;;19.67;66.30;101683.56;4975848;28;20038;-74
2023/06/14 03:58:03;;;;;;;88.15;14.90;;;20.90;99.90;;;20.36;64.02;101687.63;4984792;28;20471;-74
2023/06/14 04:00:29;;;;;;;81.75;13.60;;;21.60;99.90;;;21.17;61.68;101688.81;4981292;28;20507;-74
2023/06/14 04:02:55;;;;;;;58.40;40.22;;;22.30;99.90;;;21.82;59.64;101693.56;4956778;28;20594;-75
2023/06/14 04:05:21;;;;;;;59.25;35.95;;;22.80;99.90;;;22.39;58.18;101693.56;4990652;28;20037;-74
2023/06/14 04:07:48;;;;;;;;;;;22.80;99.90;;;23.25;57.28;101708.78;4979265;28;20687;-75
2023/06/14 04:10:16;;;;;;;12.70;4.22;;;24.10;99.90;;;24.11;55.16;101701.34;4945101;28;20622;-75
2023/06/14 04:12:42;;;;;;;8.02;4.45;;;24.70;99.90;;;24.71;53.35;101712.16;4948661;28;20055;-74
2023/06/14 04:15:09;;;;;;;13.70;4.38;;;25.20;99.90;;;25.24;52.50;101715.44;4988858;28;21122;-75
2023/06/14 04:17:37;;;;;;;13.25;3.83;;;24.80;99.90;;;24.00;53.91;101701.47;4986731;28;20034;-74
2023/06/14 04:20:07;;;;;;;12.52;4.13;;;23.80;99.90;;;22.38;56.22;101684.66;4974693;28;20059;-74
2023/06/14 04:22:34;;;;;;;14.60;5.07;;;22.60;99.90;;;20.90;59.50;101679.19;4928480;28;20035;-75
2023/06/14 04:25:00;;;;;;;10.95;4.00;;;21.40;99.90;;;19.66;62.61;101668.47;4972381;28;20547;-74
2023/06/14 04:27:30;;;;;;;12.82;4.78;;;20.40;99.90;;;18.75;65.27;101673.75;4976997;28;20053;-75
2023/06/14 04:29:59;;;;;;;15.88;4.82;;;19.70;99.90;;;18.26;67.35;101673.44;4976053;28;20062;-74
2023/06/14 04:32:33;;;;;;;10.48;4.35;;;19.00;99.90;;;17.54;69.77;101665.44;4967633;28;20046;-74
2023/06/14 04:35:03;;;;;;;11.80;4.38;;;18.50;99.90;;;17.33;71.18;101668.44;4981873;28;20049;-74
2023/06/14 04:37:30;;;;;;;13.93;4.75;;;18.50;99.90;;;17.91;70.80;101668.53;4960754;28;20039;-74
2023/06/14 04:39:56;;;;;;;13.02;5.20;;;18.60;99.90;;;18.45;69.20;101674.81;4983399;28;20043;-75
2023/06/14 04:42:25;;;;;;;14.35;4.95;;;19.20;99.90;;;19.87;66.63;101684.84;4946985;28;20042;-74
2023/06/14 04:44:51;;;;;;;10.00;4.32;;;20.50;99.90;;;22.05;61.07;101690.88;4949570;28;20039;-74
2023/06/14 04:47:17;;;;;;;13.13;4.60;;;21.90;99.90;;;23.92;56.62;101691.34;4983662;28;20496;-73
2023/06/14 04:49:44;;;;;;;12.60;4.30;;;23.30;99.90;;;25.49;53.35;101704.06;4984274;28;20077;-75
2023/06/14 04:52:10;;;;;;;9.25;4.10;;;24.50;99.90;;;26.73;49.97;101709.19;4964638;28;20046;-75
2023/06/14 04:54:41;;;;;;;10.93;4.03;;;25.50;99.90;;;27.59;47.69;101724.81;4973273;28;20562;-75
2023/06/14 04:57:16;;;;;;;13.35;4.53;;;26.30;98.40;;;27.58;47.36;101713.16;4986020;28;20484;-75
2023/06/14 04:59:44;;;;;;;12.10;3.70;;;26.30;97.70;;;27.48;47.31;101725.91;4964157;28;20054;-74
2023/06/14 05:02:11;;;;;;;15.30;3.80;;;26.70;96.80;;;28.18;45.63;101741.22;4950516;28;20042;-74
2023/06/14 05:04:39;;;;;;;9.40;4.05;;;26.30;96.20;;;25.91;48.69;101709.06;4971850;28;20046;-75
2023/06/14 05:07:09;;;;;;;12.63;3.90;;;25.30;97.10;;;24.44;52.04;101703.84;4969971;28;20538;-75
2023/06/14 05:09:36;;;;;;;7.90;3.50;;;24.70;98.50;;;24.53;52.14;101709.28;4968783;28;20023;-74
2023/06/14 05:12:03;;;;;;;13.50;3.58;;;24.50;99.10;;;24.74;51.90;101711.00;4949708;28;20049;-74
2023/06/14 05:14:28;;;;;;;12.05;3.90;;;24.60;99.40;;;25.78;50.07;101719.28;4951982;28;20035;-74
2023/06/14 05:16:54;;;;;;;10.68;4.00;;;24.90;98.20;;;26.42;48.07;101728.41;4965791;28;20489;-74
2023/06/14 05:19:20;;;;;;;;;;;25.00;99.20;;;27.69;45.21;101747.19;4957879;28;20039;-74
2023/06/14 05:21:47;;;;;;;15.52;3.63;;;26.40;97.10;;;29.26;43.59;101756.75;4943393;28;20435;-75
2023/06/14 05:24:14;;;;;;;13.45;3.40;;;27.50;95.20;;;30.49;41.12;101767.38;4957754;28;20130;-74
2023/06/14 05:26:40;;;;;;;14.13;3.70;;;28.30;93.20;;;30.88;39.87;101771.94;4980764;28;20039;-74
2023/06/14 05:29:06;;;;;;;14.38;3.85;;;28.70;92.50;;;31.05;39.18;101776.22;4956746;28;20043;-74
2023/06/14 05:31:32;;;;;;;9.48;3.63;;;28.80;91.10;;;30.59;38.96;101770.72;4948270;28;20044;-74
2023/06/14 05:33:58;;;;;;;17.40;3.85;;;28.80;91.30;;;30.96;38.82;101785.47;4983709;28;20117;-76
2023/06/14 05:36:24;;;;;;;15.30;4.03;;;29.30;90.00;;;30.99;38.49;101787.81;4958327;28;20039;-75
2023/06/14 05:38:51;;;;;;;16.80;3.58;;;29.60;89.80;;;31.50;37.30;101806.34;4955621;28;20039;-75
2023/06/14 05:41:16;;;;;;;11.45;3.35;;;29.80;87.10;;;31.85;36.33;101810.25;4949168;28;20036;-74
2023/06/14 05:43:42;;;;;;;8.25;3.22;;;30.30;88.20;;;32.78;35.20;101830.63;4967504;28;20507;-75
2023/06/14 05:46:08;;;;;;;11.02;3.33;;;31.20;86.50;;;33.83;34.15;101829.19;4956302;28;20054;-74
2023/06/14 05:48:34;;;;;;;7.05;2.90;;;31.30;82.10;;;33.39;33.86;101838.47;4975556;28;20113;-75
2023/06/14 05:51:00;;;;;;;9.52;3.35;;;31.20;80.50;;;32.73;34.01;101835.00;4959486;28;20724;-75
2023/06/14 05:53:26;;;;;;;8.88;2.83;;;31.10;81.40;;;32.88;34.16;101844.81;4980056;28;20154;-75
2023/06/14 05:55:53;;;;;;;10.30;3.10;;;31.50;82.00;;;33.65;33.13;101854.25;4946156;28;20038;-75
2023/06/14 05:58:22;;;;;;;21.48;3.08;;;32.30;82.40;;;34.64;32.21;101868.78;4955903;28;20037;-75
2023/06/14 06:00:48;;;;;;;9.82;3.15;;;32.90;78.00;;;35.12;31.46;101872.34;4985452;28;20435;-75
2023/06/14 06:03:13;;;;;;;10.00;3.10;;;33.40;76.50;;;35.45;30.63;101877.03;4942446;28;20493;-75
2023/06/14 06:05:39;;;;;;;14.65;3.40;;;33.70;75.60;;;35.43;30.44;101881.06;4978834;28;20058;-75
2023/06/14 06:08:06;;;;;;;7.25;2.97;;;34.10;73.50;;;35.83;29.96;101889.31;4988329;28;20043;-75
2023/06/14 06:10:31;;;;;;;15.43;2.67;;;34.20;72.90;;;35.59;30.32;101883.38;4937132;28;20512;-75
2023/06/14 06:12:57;;;;;;;8.90;3.00;;;34.00;69.00;;;35.02;29.28;101891.03;4984855;28;20054;-76
2023/06/14 06:15:26;;;;;;;9.20;2.90;;;32.90;68.40;;;32.89;30.73;101876.53;4978688;28;20042;-75
2023/06/14 06:17:51;;;;;;;5.22;2.85;;;32.40;69.70;;;32.74;31.33;101875.69;4956696;28;20042;-75
2023/06/14 06:20:18;;;;;;;15.70;3.08;;;32.30;70.60;;;32.74;31.17;101878.41;4969780;28;20477;-75
2023/06/14 06:22:43;;;;;;;6.82;2.75;;;32.10;71.00;;;32.76;31.22;101875.50;4976767;28;20052;-75
2023/06/14 06:25:10;;;;;;;9.52;2.38;;;32.50;69.90;;;33.50;29.80;101891.69;4985360;28;20041;-75
2023/06/14 06:27:37;;;;;;;7.95;2.63;;;32.60;70.40;;;33.58;30.11;101891.53;4962181;28;20039;-75
2023/06/14 06:30:04;;;;;;;8.25;2.60;;;32.60;70.60;;;33.24;30.28;101887.66;4979704;28;20056;-75
2023/06/14 06:32:29;;;;;;;6.35;2.42;;;32.70;68.90;;;32.63;30.86;101892.53;4929787;28;20126;-76
2023/06/14 06:34:55;;;;;;;5.20;2.65;;;31.40;70.80;;;30.16;33.77;101854.41;4974958;28;20079;-75
2023/06/14 06:37:21;;;;;;;8.80;2.53;;;31.30;72.30;;;28.88;35.26;101845.78;4938839;28;20675;-75
2023/06/14 06:39:47;;;;;;;9.65;2.30;;;28.90;75.70;;;27.63;37.46;101825.44;4975549;28;20116;-75
2023/06/14 06:42:13;;;;;;;13.63;3.40;;;28.70;78.50;;;27.88;38.14;101824.63;4988403;28;20039;-75
2023/06/14 06:44:39;;;;;;;9.15;3.00;;;27.80;81.40;;;26.52;41.03;101803.97;4962159;28;20077;-75
2023/06/14 06:47:05;;;;;;;6.32;2.70;;;27.30;84.20;;;26.16;42.09;101801.16;4937993;28;20043;-75
2023/06/14 06:49:31;;;;;;;8.93;2.55;;;26.60;83.00;;;25.60;41.97;101796.56;4944200;28;20089;-75
2023/06/14 06:52:05;;;;;;;6.90;2.67;;;26.50;82.90;;;26.43;40.13;101811.13;4955428;28;20050;-75
2023/06/14 06:54:32;;;;;;;8.07;2.45;;;26.10;82.70;;;25.94;41.44;101789.72;4954625;28;20053;-75
2023/06/14 06:56:58;;;;;;;5.82;2.40;;;26.30;82.10;;;26.39;39.84;101804.31;4986706;28;20093;-74
2023/06/14 06:59:25;;;;;;;13.70;2.63;;;26.90;82.80;;;27.42;39.01;101813.94;4949929;28;20031;-74
2023/06/14 07:01:50;;;;;;;10.75;2.95;;;27.50;80.60;;;27.90;37.80;101821.78;4953513;28;20691;-75
2023/06/14 07:04:17;;;;;;;8.20;2.53;;;28.30;76.70;;;28.42;35.90;101827.13;4990651;28;20042;-75
2023/06/14 07:06:43;;;;;;;10.20;2.78;;;28.00;76.60;;;27.14;38.05;101810.44;4977004;28;20038;-75
2023/06/14 07:09:12;;;;;;;8.20;2.55;;;28.30;78.60;;;28.50;36.34;101835.34;4976915;28;20500;-75
2023/06/14 07:11:45;;;;;;;10.95;2.67;;;28.50;77.00;;;28.83;35.30;101841.75;4959466;28;20499;-76
2023/06/14 07:14:11;;;;;;;6.50;2.10;;;28.80;74.70;;;29.11;34.52;101844.19;4987275;28;20043;-74
2023/06/14 07:16:37;;;;;;;10.77;2.42;;;29.10;73.10;;;29.26;34.24;101848.97;4940958;28;20143;-75
2023/06/14 07:19:03;;;;;;;6.35;2.53;;;29.30;75.70;;;28.93;33.57;101846.16;4973376;28;20845;-76
2023/06/14 07:21:29;;;;;;;4.13;2.50;;;29.20;70.80;;;28.48;33.96;101858.16;4949439;28;20037;-73
2023/06/14 07:23:57;;;;;;;6.18;2.28;;;28.60;68.10;;;27.28;33.77;101844.25;4939564;28;20731;-76
2023/06/14 07:26:23;;;;;;;9.57;2.30;;;28.70;72.50;;;28.93;33.29;101862.44;4988162;28;20039;-75
2023/06/14 07:28:49;;;;;;;3.20;2.05;;;29.00;71.10;;;29.32;32.61;101870.00;4986744;28;20627;-75
2023/06/14 07:31:16;;;;;;;8.82;2.40;;;29.30;70.80;;;29.12;33.23;101870.31;4969211;28;20113;-75
2023/06/14 07:33:42;;;;;;;9.35;2.88;;;29.40;70.00;;;29.57;32.30;101888.00;4972728;28;20043;-75
2023/06/14 07:36:08;;;;;;;9.35;2.20;;;29.50;70.80;;;29.50;32.63;101878.00;4935220;28;20053;-76
2023/06/14 07:38:37;;;;;;;12.25;2.80;;;29.20;70.50;;;28.93;33.16;101876.00;4985842;28;20031;-76
2023/06/14 07:41:03;;;;;;;9.02;2.40;;;29.70;70.30;;;29.87;31.96;101891.09;4949094;28;20078;-76
2023/06/14 07:43:29;;;;;;;11.73;2.33;;;30.00;68.60;;;30.08;31.09;101900.56;4956685;28;20069;-75
2023/06/14 07:45:55;;;;;;;8.65;2.10;;;30.10;66.60;;;30.09;30.79;101902.25;4960681;28;20610;-75
2023/06/14 07:48:21;;;;;;;9.38;2.35;;;30.00;67.10;;;29.63;31.02;101892.78;4977521;28;20027;-75
2023/06/14 07:50:47;;;;;;;11.27;2.50;;;29.40;68.10;;;28.64;32.23;101879.94;4963235;28;20529;-75
2023/06/14 07:53:13;;;;;;;7.10;1.80;;;29.00;68.80;;;28.51;32.59;101874.09;4956749;28;20054;-76
2023/06/14 07:55:39;;;;;;;7.22;2.40;;;28.90;70.90;;;28.86;32.79;101872.25;4954559;28;20134;-74
2023/06/14 07:58:06;;;;;;;7.38;2.10;;;29.00;70.70;;;29.35;32.07;101872.38;4983880;28;20027;-75
2023/06/14 08:00:32;;;;;;;6.40;2.22;;;29.00;67.40;;;29.14;31.64;101875.56;4982364;28;20045;-74
2023/06/14 08:02:59;;;;;;;11.63;2.58;;;29.00;70.10;;;28.53;32.87;101877.50;4918742;28;20466;-76
2023/06/14 08:05:26;;;;;;;3.22;2.05;;;28.50;70.00;;;27.79;33.63;101872.41;4978488;28;20042;-75
2023/06/14 08:07:52;;;;;;;8.80;2.17;;;27.90;68.40;;;26.77;33.32;101856.47;4986865;28;20038;-75
2023/06/14 08:10:21;;;;;;;9.80;2.40;;;26.80;68.70;;;25.24;35.26;101839.41;4958554;28;20091;-75
2023/06/14 08:12:48;;;;;;;3.42;2.10;;;26.40;71.40;;;25.28;35.95;101836.31;4943947;28;20035;-76
2023/06/14 08:15:14;;;;;;;6.35;2.42;;;25.80;72.70;;;24.80;36.69;101820.03;4955195;28;20497;-75
2023/06/14 08:17:40;;;;;;;8.80;2.28;;;25.70;76.00;;;25.61;36.77;101830.63;4970145;28;20050;-75
2023/06/14 08:20:07;;;;;;;8.82;2.60;;;25.70;74.50;;;25.63;36.08;101834.03;4960212;28;20026;-76
2023/06/14 08:22:36;;;;;;;9.48;2.33;;;25.50;73.70;;;24.92;37.05;101818.91;4973004;28;20305;-75
2023/06/14 08:25:07;;;;;;;6.70;2.22;;;25.20;76.00;;;24.60;38.10;101803.84;4955947;28;20035;-74
2023/06/14 08:27:32;;;;;;;14.43;2.35;;;25.40;77.00;;;25.30;37.41;101804.66;4956004;28;20389;-75
2023/06/14 08:29:58;;;;;;;8.82;3.67;;;25.40;77.10;;;25.01;37.88;101801.94;4970045;28;20041;-75
2023/06/14 08:32:26;;;;;;;5.00;2.42;;;25.20;77.00;;;24.31;38.47;101785.69;4948862;28;20438;-74
2023/06/14 08:34:54;;;;;;;13.60;3.42;;;25.20;77.80;;;24.00;38.68;101800.13;4983082;28;20583;-74
2023/06/14 08:37:20;;;;;;;11.15;3.58;;;24.60;77.70;;;23.81;39.15;101782.03;4979817;28;20030;-75
2023/06/14 08:39:46;;;;;;;6.65;2.60;;;24.40;76.00;;;23.66;38.81;101786.88;4938933;28;20031;-75
2023/06/14 08:42:14;;;;;;;6.88;2.42;;;24.40;77.20;;;23.75;39.14;101781.56;4945129;28;20094;-75
2023/06/14 08:44:40;;;;;;;9.10;2.50;;;24.40;78.90;;;23.91;39.16;101789.19;4982217;28;20722;-74
2023/06/14 08:47:09;;;;;;;10.88;2.42;;;24.50;77.10;;;23.93;38.66;101784.53;4981263;28;20045;-75
2023/06/14 08:49:37;;;;;;;6.68;2.35;;;24.60;78.10;;;24.26;38.86;101787.94;4982629;28;20026;-75
2023/06/14 08:52:05;;;;;;;8.23;2.78;;;24.70;79.50;;;24.14;40.04;101773.72;4953103;28;20557;-75
2023/06/14 08:54:34;;;;;;;9.98;2.55;;;24.90;78.20;;;24.36;39.22;101775.38;4959273;28;20194;-74
2023/06/14 08:57:00;;;;;;;7.07;2.35;;;24.80;78.80;;;24.26;39.95;101771.78;4964208;28;20038;-74
2023/06/14 08:59:27;;;;;;;11.23;2.45;;;24.70;78.30;;;24.04;39.82;101774.66;4964564;28;20031;-75
2023/06/14 09:01:57;;;;;;;15.02;3.20;;;24.80;79.40;;;24.30;39.82;101773.22;4986406;28;20067;-76
2023/06/14 09:04:29;;;;;;;7.70;2.13;;;24.80;76.80;;;24.21;38.67;101779.44;4936662;28;20088;-75
2023/06/14 09:06:56;;;;;;;5.70;2.55;;;24.80;76.20;;;24.00;38.85;101778.63;4968205;28;20035;-76
2023/06/14 09:09:24;;;;;;;8.88;2.50;;;24.70;77.60;;;24.20;39.45;101785.78;4981941;28;20035;-75
2023/06/14 09:11:53;;;;;;;9.15;2.20;;;24.80;77.20;;;24.23;38.87;101774.75;4953141;28;20066;-76
2023/06/14 09:14:24;;;;;;;11.02;2.38;;;24.70;77.10;;;23.98;38.92;101776.06;4930281;28;20062;-77
2023/06/14 09:16:54;;;;;;;8.52;2.47;;;24.80;77.60;;;24.14;38.86;101780.94;4943656;28;20040;-76
2023/06/14 09:19:26;;;;;;;15.75;2.65;;;24.70;72.90;;;23.93;37.29;101789.03;4974359;28;20151;-75
2023/06/14 09:21:53;;;;;;;13.30;2.42;;;24.60;71.50;;;23.92;36.46;101790.03;4956930;28;20035;-76
2023/06/14 09:24:19;;;;;;;7.43;2.10;;;24.40;72.50;;;23.36;37.41;101776.88;4973176;28;20035;-77
2023/06/14 09:26:51;;;;;;;5.47;2.20;;;24.20;74.60;;;23.33;37.92;101783.38;4953668;28;20031;-78
2023/06/14 09:29:20;;;;;;;4.05;2.10;;;24.30;76.00;;;23.18;37.14;101779.28;4946610;28;20674;-78
2023/06/14 09:31:47;;;;;;;7.47;2.03;;;24.00;72.90;;;23.16;36.55;101778.56;4960672;28;20059;-77
2023/06/14 09:34:23;;;;;;;5.97;2.08;;;24.00;72.10;;;23.36;36.27;101796.53;4952618;28;20040;-76
2023/06/14 09:36:55;;;;;;;5.80;2.00;;;24.10;75.50;;;23.50;37.96;101785.50;4954249;28;20080;-77
2023/06/14 09:39:25;;;;;;;9.02;2.60;;;24.20;74.20;;;23.51;37.07;101784.50;4959145;28;20035;-76
2023/06/14 09:41:50;;;;;;;11.15;2.35;;;24.20;73.50;;;23.57;36.95;101791.19;4980711;28;20035;-76
2023/06/14 09:44:20;;;;;;;10.88;2.10;;;24.40;73.60;;;23.81;36.61;101785.56;4986945;28;20109;-77
2023/06/14 09:46:47;;;;;;;7.80;2.20;;;24.50;73.00;;;23.92;36.28;101793.56;4987465;28;20181;-76
2023/06/14 09:49:16;;;;;;;5.57;1.90;;;24.50;73.50;;;23.98;36.65;101802.94;4960751;28;20064;-77
2023/06/14 09:51:58;;;;;;;6.45;2.08;;;24.50;73.90;;;23.89;36.87;101798.38;4988161;28;20148;-77
2023/06/14 09:54:28;;;;;;;5.70;2.10;;;24.70;71.80;;;24.18;35.48;101800.38;4989207;28;20496;-75
2023/06/14 09:57:02;;;;;;;14.10;2.47;;;24.90;73.30;;;24.39;36.03;101789.56;4956947;28;20504;-76
2023/06/14 09:59:39;;;;;;;4.40;2.20;;;25.20;73.00;;;24.80;35.91;101796.66;4959343;28;20181;-76
2023/06/14 10:02:26;;;;;;;8.30;1.98;;;25.00;72.00;;;24.34;35.75;101796.19;4972828;28;20508;-76
2023/06/14 10:05:19;;;;;;;7.00;1.98;;;24.80;72.30;;;23.88;36.55;101789.44;4959950;28;20537;-76
2023/06/14 10:08:09;;;;;;;8.32;2.30;;;24.80;71.90;;;24.04;35.65;101788.97;4956724;28;20055;-76
2023/06/14 10:10:39;;;;;;;4.40;2.17;;;24.90;73.20;;;24.16;36.24;101785.19;4959696;28;20039;-76